createdAt,value
2018-03-18T00:00:39.038Z,1011.15
2018-03-18T00:01:48.504Z,1011.13
2018-03-18T00:02:57.965Z,1011.16
2018-03-18T00:04:07.926Z,1011.17
2018-03-18T00:05:17.630Z,1011.04
2018-03-18T00:06:26.817Z,1011.17
2018-03-18T00:07:35.731Z,1011.2
2018-03-18T00:08:45.678Z,1011.19
2018-03-18T00:09:55.381Z,1011.12
2018-03-18T00:11:05.374Z,1011.15
2018-03-18T00:12:15.088Z,1011.19
2018-03-18T00:13:24.799Z,1011.18
2018-03-18T00:14:35.024Z,1011.28
2018-03-18T00:15:44.738Z,1011.28
2018-03-18T00:16:54.179Z,1011.31
2018-03-18T00:18:03.614Z,1011.27
2018-03-18T00:19:13.049Z,1011.22
2018-03-18T00:20:22.749Z,1011.25
2018-03-18T00:21:32.716Z,1011.26
2018-03-18T00:22:42.171Z,1011.26
2018-03-18T00:23:51.363Z,1011.32
2018-03-18T00:25:01.080Z,1011.2
2018-03-18T00:26:09.997Z,1011.28
2018-03-18T00:27:19.953Z,1011.26
2018-03-18T00:28:29.649Z,1011.27
2018-03-18T00:29:39.094Z,1011.22
2018-03-18T00:30:49.049Z,1011.32
2018-03-18T00:31:58.765Z,1011.21
2018-03-18T00:33:08.217Z,1011.29
2018-03-18T00:34:18.178Z,1011.35
2018-03-18T00:35:28.128Z,1011.25
2018-03-18T00:36:37.820Z,1011.32
2018-03-18T00:37:47.511Z,1011.27
2018-03-18T00:38:57.228Z,1011.33
2018-03-18T00:40:06.671Z,1011.42
2018-03-18T00:41:16.386Z,1011.34
2018-03-18T00:42:26.076Z,1011.4
2018-03-18T00:43:36.036Z,1011.32
2018-03-18T00:44:45.217Z,1011.37
2018-03-18T00:45:55.167Z,1011.32
2018-03-18T00:47:04.596Z,1011.37
2018-03-18T00:48:14.584Z,1011.34
2018-03-18T00:49:23.503Z,1011.32
2018-03-18T00:50:33.201Z,1011.37
2018-03-18T00:51:42.636Z,1011.38
2018-03-18T00:52:52.069Z,1011.37
2018-03-18T00:54:01.769Z,1011.34
2018-03-18T00:55:12.138Z,1011.36
2018-03-18T00:56:22.105Z,1011.19
2018-03-18T00:57:32.067Z,1011.31
2018-03-18T00:58:42.032Z,1011.25
2018-03-18T00:59:51.467Z,1011.33
2018-03-18T01:01:01.157Z,1011.35
2018-03-18T01:02:10.857Z,1011.4
2018-03-18T01:03:20.560Z,1011.33
2018-03-18T01:04:30.519Z,1011.35
2018-03-18T01:05:40.210Z,1011.4
2018-03-18T01:06:49.915Z,1011.44
2018-03-18T01:07:59.872Z,1011.38
2018-03-18T01:09:09.825Z,1011.41
2018-03-18T01:10:19.004Z,1011.38
2018-03-18T01:11:28.725Z,1011.38
2018-03-18T01:12:37.903Z,1011.3
2018-03-18T01:13:47.340Z,1011.34
2018-03-18T01:14:57.298Z,1011.31
2018-03-18T01:16:06.468Z,1011.31
2018-03-18T01:17:15.904Z,1011.4
2018-03-18T01:18:25.076Z,1011.38
2018-03-18T01:19:34.249Z,1011.32
2018-03-18T01:20:44.219Z,1011.35
2018-03-18T01:21:54.172Z,1011.37
2018-03-18T01:23:03.916Z,1011.37
2018-03-18T01:24:13.612Z,1011.46
2018-03-18T01:25:23.562Z,1011.34
2018-03-18T01:26:33.519Z,1011.44
2018-03-18T01:27:42.955Z,1011.29
2018-03-18T01:28:52.647Z,1011.33
2018-03-18T01:30:02.617Z,1011.33
2018-03-18T01:31:12.322Z,1011.33
2018-03-18T01:32:21.795Z,1011.34
2018-03-18T01:33:31.227Z,1011.37
2018-03-18T01:34:41.180Z,1011.35
2018-03-18T01:35:51.133Z,1011.23
2018-03-18T01:37:01.083Z,1011.29
2018-03-18T01:38:10.790Z,1011.29
2018-03-18T01:39:20.475Z,1011.3
2018-03-18T01:40:30.190Z,1011.33
2018-03-18T01:41:39.889Z,1011.41
2018-03-18T01:42:49.850Z,1011.4
2018-03-18T01:43:59.530Z,1011.37
2018-03-18T01:45:09.232Z,1011.38
2018-03-18T01:46:18.924Z,1011.46
2018-03-18T01:47:28.354Z,1011.4
2018-03-18T01:48:38.056Z,1011.34
2018-03-18T01:49:48.015Z,1011.26
2018-03-18T01:50:57.968Z,1011.36
2018-03-18T01:52:07.651Z,1011.23
2018-03-18T01:53:17.606Z,1011.31
2018-03-18T01:54:27.037Z,1011.3
2018-03-18T01:55:36.728Z,1011.39
2018-03-18T01:56:46.192Z,1011.35
2018-03-18T01:57:56.122Z,1011.32
2018-03-18T01:59:05.668Z,1011.35
2018-03-18T02:00:15.633Z,1011.25
2018-03-18T02:01:25.342Z,1011.35
2018-03-18T02:02:34.785Z,1011.36
2018-03-18T02:03:44.475Z,1011.39
2018-03-18T02:04:54.174Z,1011.37
2018-03-18T02:06:03.359Z,1011.34
2018-03-18T02:07:13.044Z,1011.45
2018-03-18T02:08:22.743Z,1011.42
2018-03-18T02:09:32.705Z,1011.36
2018-03-18T02:10:42.403Z,1011.36
2018-03-18T02:11:52.364Z,1011.39
2018-03-18T02:13:01.818Z,1011.3
2018-03-18T02:14:11.245Z,1011.37
2018-03-18T02:15:20.934Z,1011.39
2018-03-18T02:16:30.927Z,1011.35
2018-03-18T02:17:40.867Z,1011.41
2018-03-18T02:18:50.576Z,1011.34
2018-03-18T02:20:00.319Z,1011.3
2018-03-18T02:21:09.746Z,1011.41
2018-03-18T02:22:19.458Z,1011.33
2018-03-18T02:23:29.437Z,1011.35
2018-03-18T02:24:39.388Z,1011.35
2018-03-18T02:25:49.088Z,1011.33
2018-03-18T02:26:58.801Z,1011.41
2018-03-18T02:28:08.491Z,1011.29
2018-03-18T02:29:18.188Z,1011.41
2018-03-18T02:30:27.889Z,1011.37
2018-03-18T02:31:37.922Z,1011.45
2018-03-18T02:32:47.375Z,1011.45
2018-03-18T02:33:57.092Z,1011.44
2018-03-18T02:35:06.878Z,1011.42
2018-03-18T02:36:16.600Z,1011.38
2018-03-18T02:37:26.579Z,1011.43
2018-03-18T02:38:35.757Z,1011.46
2018-03-18T02:39:45.210Z,1011.45
2018-03-18T02:40:55.172Z,1011.42
2018-03-18T02:42:05.178Z,1011.43
2018-03-18T02:43:15.154Z,1011.47
2018-03-18T02:44:25.159Z,1011.42
2018-03-18T02:45:34.876Z,1011.47
2018-03-18T02:46:44.828Z,1011.47
2018-03-18T02:47:54.262Z,1011.44
2018-03-18T02:49:04.234Z,1011.43
2018-03-18T02:50:14.192Z,1011.35
2018-03-18T02:51:23.899Z,1011.45
2018-03-18T02:52:33.597Z,1011.41
2018-03-18T02:53:43.302Z,1011.45
2018-03-18T02:54:53.010Z,1011.32
2018-03-18T02:56:02.450Z,1011.37
2018-03-18T02:57:12.164Z,1011.41
2018-03-18T02:58:21.854Z,1011.43
2018-03-18T02:59:31.830Z,1011.35
2018-03-18T03:00:41.541Z,1011.5
2018-03-18T03:01:51.234Z,1011.42
2018-03-18T03:03:00.682Z,1011.45
2018-03-18T03:04:10.238Z,1011.46
2018-03-18T03:05:19.944Z,1011.52
2018-03-18T03:06:29.396Z,1011.47
2018-03-18T03:07:39.368Z,1011.42
2018-03-18T03:08:49.146Z,1011.47
2018-03-18T03:09:58.970Z,1011.45
2018-03-18T03:11:08.144Z,1011.41
2018-03-18T03:12:17.840Z,1011.44
2018-03-18T03:13:27.791Z,1011.44
2018-03-18T03:14:37.476Z,1011.44
2018-03-18T03:15:47.167Z,1011.51
2018-03-18T03:16:57.163Z,1011.47
2018-03-18T03:18:07.142Z,1011.51
2018-03-18T03:19:17.122Z,1011.55
2018-03-18T03:20:27.076Z,1011.55
2018-03-18T03:21:36.769Z,1011.57
2018-03-18T03:22:46.731Z,1011.54
2018-03-18T03:23:56.442Z,1011.52
2018-03-18T03:25:06.398Z,1011.49
2018-03-18T03:26:16.346Z,1011.59
2018-03-18T03:27:26.296Z,1011.59
2018-03-18T03:28:36.005Z,1011.61
2018-03-18T03:29:45.998Z,1011.49
2018-03-18T03:30:55.956Z,1011.54
2018-03-18T03:32:05.673Z,1011.64
2018-03-18T03:33:15.392Z,1011.59
2018-03-18T03:34:25.092Z,1011.63
2018-03-18T03:35:34.799Z,1011.56
2018-03-18T03:36:44.498Z,1011.6
2018-03-18T03:37:54.448Z,1011.65
2018-03-18T03:39:04.200Z,1011.64
2018-03-18T03:40:13.636Z,1011.66
2018-03-18T03:41:23.601Z,1011.6
2018-03-18T03:42:33.558Z,1011.59
2018-03-18T03:43:43.509Z,1011.63
2018-03-18T03:44:53.476Z,1011.61
2018-03-18T03:46:03.478Z,1011.68
2018-03-18T03:47:13.426Z,1011.72
2018-03-18T03:48:23.113Z,1011.66
2018-03-18T03:49:33.059Z,1011.73
2018-03-18T03:50:43.053Z,1011.69
2018-03-18T03:51:52.999Z,1011.65
2018-03-18T03:53:02.952Z,1011.69
2018-03-18T03:54:12.651Z,1011.67
2018-03-18T03:55:22.382Z,1011.72
2018-03-18T03:56:32.345Z,1011.65
2018-03-18T03:57:42.048Z,1011.71
2018-03-18T03:58:52.002Z,1011.69
2018-03-18T04:00:01.948Z,1011.78
2018-03-18T04:01:11.647Z,1011.62
2018-03-18T04:02:21.336Z,1011.78
2018-03-18T04:03:31.037Z,1011.78
2018-03-18T04:04:40.988Z,1011.76
2018-03-18T04:05:50.675Z,1011.81
2018-03-18T04:07:00.364Z,1011.72
2018-03-18T04:08:10.336Z,1011.75
2018-03-18T04:09:20.288Z,1011.74
2018-03-18T04:10:30.235Z,1011.84
2018-03-18T04:11:40.174Z,1011.87
2018-03-18T04:12:49.864Z,1011.77
2018-03-18T04:13:59.817Z,1011.77
2018-03-18T04:15:09.769Z,1011.76
2018-03-18T04:16:19.716Z,1011.79
2018-03-18T04:17:29.188Z,1011.82
2018-03-18T04:18:38.615Z,1011.78
2018-03-18T04:19:48.570Z,1011.68
2018-03-18T04:20:58.275Z,1011.73
2018-03-18T04:22:07.976Z,1011.71
2018-03-18T04:23:17.944Z,1011.75
2018-03-18T04:24:27.646Z,1011.73
2018-03-18T04:25:37.589Z,1011.66
2018-03-18T04:26:47.281Z,1011.78
2018-03-18T04:27:56.446Z,1011.82
2018-03-18T04:29:06.388Z,1011.77
2018-03-18T04:30:16.081Z,1011.67
2018-03-18T04:31:26.031Z,1011.85
2018-03-18T04:32:36.038Z,1011.78
2018-03-18T04:33:45.214Z,1011.76
2018-03-18T04:34:54.725Z,1011.84
2018-03-18T04:36:04.431Z,1011.84
2018-03-18T04:37:14.132Z,1011.72
2018-03-18T04:38:23.823Z,1011.85
2018-03-18T04:39:33.508Z,1011.88
2018-03-18T04:40:42.949Z,1011.88
2018-03-18T04:41:52.377Z,1011.89
2018-03-18T04:43:02.341Z,1011.84
2018-03-18T04:44:12.297Z,1011.8
2018-03-18T04:45:21.981Z,1011.78
2018-03-18T04:46:31.678Z,1011.87
2018-03-18T04:47:41.375Z,1011.79
2018-03-18T04:48:51.089Z,1011.86
2018-03-18T04:50:00.785Z,1011.85
2018-03-18T04:51:10.221Z,1011.85
2018-03-18T04:52:19.700Z,1011.83
2018-03-18T04:53:29.152Z,1011.96
2018-03-18T04:54:39.116Z,1011.9
2018-03-18T04:55:49.122Z,1011.9
2018-03-18T04:56:58.546Z,1011.9
2018-03-18T04:58:08.490Z,1011.87
2018-03-18T04:59:18.171Z,1011.92
2018-03-18T05:00:28.122Z,1011.91
2018-03-18T05:01:37.553Z,1011.89
2018-03-18T05:02:47.289Z,1011.91
2018-03-18T05:03:56.978Z,1011.84
2018-03-18T05:05:06.730Z,1011.9
2018-03-18T05:06:15.908Z,1011.99
2018-03-18T05:07:25.865Z,1011.96
2018-03-18T05:08:35.811Z,1012.02
2018-03-18T05:09:45.760Z,1012.06
2018-03-18T05:10:55.459Z,1012.06
2018-03-18T05:12:05.434Z,1011.99
2018-03-18T05:13:15.133Z,1012.08
2018-03-18T05:14:24.848Z,1012
2018-03-18T05:15:34.299Z,1012.05
2018-03-18T05:16:44.251Z,1012.05
2018-03-18T05:17:54.196Z,1012
2018-03-18T05:19:03.620Z,1011.99
2018-03-18T05:20:13.311Z,1012.03
2018-03-18T05:21:23.256Z,1012.07
2018-03-18T05:22:33.247Z,1012.04
2018-03-18T05:23:43.192Z,1012.13
2018-03-18T05:24:52.877Z,1012.11
2018-03-18T05:26:02.817Z,1012.16
2018-03-18T05:27:12.765Z,1012.12
2018-03-18T05:28:22.721Z,1012.16
2018-03-18T05:29:32.682Z,1012.14
2018-03-18T05:30:42.111Z,1012.16
2018-03-18T05:31:51.031Z,1012.16
2018-03-18T05:33:00.486Z,1012.09
2018-03-18T05:34:10.177Z,1012.12
2018-03-18T05:35:19.601Z,1012.16
2018-03-18T05:36:29.553Z,1012.16
2018-03-18T05:37:39.244Z,1012.2
2018-03-18T05:38:48.696Z,1012.24
2018-03-18T05:39:57.862Z,1012.22
2018-03-18T05:41:07.557Z,1012.22
2018-03-18T05:42:17.528Z,1012.21
2018-03-18T05:43:27.475Z,1012.23
2018-03-18T05:44:37.419Z,1012.09
2018-03-18T05:45:47.384Z,1012.22
2018-03-18T05:46:57.345Z,1012.26
2018-03-18T05:48:07.309Z,1012.25
2018-03-18T05:49:17.280Z,1012.28
2018-03-18T05:50:26.715Z,1012.21
2018-03-18T05:51:36.409Z,1012.32
2018-03-18T05:52:46.375Z,1012.26
2018-03-18T05:53:56.079Z,1012.21
2018-03-18T05:55:05.776Z,1012.3
2018-03-18T05:56:15.480Z,1012.34
2018-03-18T05:57:25.593Z,1012.34
2018-03-18T05:58:35.284Z,1012.39
2018-03-18T05:59:45.240Z,1012.29
2018-03-18T06:00:55.194Z,1012.38
2018-03-18T06:02:04.896Z,1012.36
2018-03-18T06:03:14.876Z,1012.37
2018-03-18T06:04:24.560Z,1012.44
2018-03-18T06:05:34.252Z,1012.43
2018-03-18T06:06:43.956Z,1012.42
2018-03-18T06:07:53.918Z,1012.37
2018-03-18T06:09:03.166Z,1012.4
2018-03-18T06:10:13.111Z,1012.5
2018-03-18T06:11:22.816Z,1012.41
2018-03-18T06:12:32.854Z,1012.37
2018-03-18T06:13:42.865Z,1012.48
2018-03-18T06:14:52.545Z,1012.45
2018-03-18T06:16:02.513Z,1012.34
2018-03-18T06:17:12.464Z,1012.41
2018-03-18T06:18:21.958Z,1012.48
2018-03-18T06:19:31.924Z,1012.53
2018-03-18T06:20:41.623Z,1012.55
2018-03-18T06:21:50.801Z,1012.52
2018-03-18T06:23:00.497Z,1012.49
2018-03-18T06:24:09.931Z,1012.56
2018-03-18T06:25:19.924Z,1012.51
2018-03-18T06:26:29.872Z,1012.59
2018-03-18T06:27:39.561Z,1012.58
2018-03-18T06:28:49.256Z,1012.52
2018-03-18T06:29:59.203Z,1012.57
2018-03-18T06:31:09.184Z,1012.64
2018-03-18T06:32:19.132Z,1012.53
2018-03-18T06:33:29.088Z,1012.56
2018-03-18T06:34:38.577Z,1012.51
2018-03-18T06:35:48.525Z,1012.57
2018-03-18T06:36:57.700Z,1012.57
2018-03-18T06:38:07.502Z,1012.44
2018-03-18T06:39:17.456Z,1012.63
2018-03-18T06:40:26.894Z,1012.63
2018-03-18T06:41:36.862Z,1012.79
2018-03-18T06:42:46.822Z,1012.66
2018-03-18T06:43:56.253Z,1012.66
2018-03-18T06:45:06.210Z,1012.7
2018-03-18T06:46:15.656Z,1012.71
2018-03-18T06:47:25.621Z,1012.69
2018-03-18T06:48:35.581Z,1012.71
2018-03-18T06:49:45.026Z,1012.75
2018-03-18T06:50:54.947Z,1012.7
2018-03-18T06:52:04.635Z,1012.79
2018-03-18T06:53:14.582Z,1012.66
2018-03-18T06:54:24.019Z,1012.65
2018-03-18T06:55:33.733Z,1012.78
2018-03-18T06:56:43.678Z,1012.75
2018-03-18T06:57:53.370Z,1012.81
2018-03-18T06:59:03.076Z,1012.89
2018-03-18T07:00:12.769Z,1012.86
2018-03-18T07:01:22.468Z,1012.95
2018-03-18T07:02:32.438Z,1012.9
2018-03-18T07:03:41.898Z,1012.97
2018-03-18T07:04:51.601Z,1012.87
2018-03-18T07:06:01.299Z,1012.84
2018-03-18T07:07:11.238Z,1012.96
2018-03-18T07:08:21.241Z,1012.94
2018-03-18T07:09:31.196Z,1012.72
2018-03-18T07:10:40.889Z,1012.87
2018-03-18T07:11:50.600Z,1012.94
2018-03-18T07:13:00.028Z,1013
2018-03-18T07:14:10.076Z,1012.88
2018-03-18T07:15:19.508Z,1013
2018-03-18T07:16:29.485Z,1012.95
2018-03-18T07:17:39.196Z,1012.99
2018-03-18T07:18:49.167Z,1012.89
2018-03-18T07:19:58.365Z,1012.94
2018-03-18T07:21:08.180Z,1012.86
2018-03-18T07:22:17.885Z,1012.98
2018-03-18T07:23:27.901Z,1012.97
2018-03-18T07:24:37.865Z,1012.96
2018-03-18T07:25:47.812Z,1012.96
2018-03-18T07:26:57.779Z,1013.04
2018-03-18T07:28:07.469Z,1012.98
2018-03-18T07:29:17.469Z,1013.08
2018-03-18T07:30:27.169Z,1012.97
2018-03-18T07:31:37.144Z,1012.88
2018-03-18T07:32:46.837Z,1013.02
2018-03-18T07:33:56.797Z,1012.98
2018-03-18T07:35:06.768Z,1013.04
2018-03-18T07:36:16.481Z,1012.86
2018-03-18T07:37:26.484Z,1012.98
2018-03-18T07:38:36.192Z,1012.96
2018-03-18T07:39:46.380Z,1013.04
2018-03-18T07:40:56.110Z,1013.11
2018-03-18T07:42:06.076Z,1012.99
2018-03-18T07:43:15.852Z,1013.02
2018-03-18T07:44:25.310Z,1013.03
2018-03-18T07:45:35.261Z,1013.04
2018-03-18T07:46:44.966Z,1013
2018-03-18T07:47:54.670Z,1012.94
2018-03-18T07:49:04.363Z,1013.02
2018-03-18T07:50:14.317Z,1013.14
2018-03-18T07:51:24.264Z,1013.12
2018-03-18T07:52:33.953Z,1013.03
2018-03-18T07:53:43.638Z,1013.02
2018-03-18T07:54:53.335Z,1012.88
2018-03-18T07:56:03.038Z,1013.03
2018-03-18T07:57:12.738Z,1013.07
2018-03-18T07:58:22.700Z,1013.15
2018-03-18T07:59:32.646Z,1013.15
2018-03-18T08:00:42.342Z,1013.14
2018-03-18T08:01:52.041Z,1013.15
2018-03-18T08:03:02.206Z,1013.13
2018-03-18T08:04:11.428Z,1013.09
2018-03-18T08:05:21.129Z,1013.22
2018-03-18T08:06:31.090Z,1013.14
2018-03-18T08:07:41.039Z,1013.16
2018-03-18T08:08:50.220Z,1013.22
2018-03-18T08:10:00.189Z,1013.18
2018-03-18T08:11:09.376Z,1013.23
2018-03-18T08:12:18.292Z,1013.23
2018-03-18T08:13:28.248Z,1013.14
2018-03-18T08:14:37.934Z,1013.17
2018-03-18T08:15:47.620Z,1013.17
2018-03-18T08:16:57.368Z,1013.2
2018-03-18T08:18:07.310Z,1013.27
2018-03-18T08:19:17.267Z,1013.29
2018-03-18T08:20:26.731Z,1013.21
2018-03-18T08:21:36.694Z,1013.42
2018-03-18T08:22:46.396Z,1013.22
2018-03-18T08:23:56.418Z,1013.15
2018-03-18T08:25:06.121Z,1013.31
2018-03-18T08:26:15.848Z,1013.37
2018-03-18T08:27:25.565Z,1013.35
2018-03-18T08:28:35.527Z,1013.35
2018-03-18T08:29:45.478Z,1013.27
2018-03-18T08:30:55.185Z,1013.24
2018-03-18T08:32:05.225Z,1013.09
2018-03-18T08:33:15.208Z,1013.26
2018-03-18T08:34:25.176Z,1013.29
2018-03-18T08:35:35.150Z,1013.33
2018-03-18T08:36:44.864Z,1013.31
2018-03-18T08:37:54.820Z,1013.26
2018-03-18T08:39:04.777Z,1013.3
2018-03-18T08:40:14.479Z,1013.28
2018-03-18T08:41:24.473Z,1013.13
2018-03-18T08:42:34.487Z,1013.43
2018-03-18T08:43:44.471Z,1013.34
2018-03-18T08:44:54.435Z,1013.38
2018-03-18T08:46:04.161Z,1013.33
2018-03-18T08:47:14.143Z,1013.38
2018-03-18T08:48:24.101Z,1013.27
2018-03-18T08:49:33.820Z,1013.17
2018-03-18T08:50:43.810Z,1013.37
2018-03-18T08:51:53.521Z,1013.28
2018-03-18T08:53:03.488Z,1013.33
2018-03-18T08:54:13.446Z,1013.3
2018-03-18T08:55:23.148Z,1013.36
2018-03-18T08:56:32.861Z,1013.33
2018-03-18T08:57:42.844Z,1013.4
2018-03-18T08:58:52.040Z,1013.26
2018-03-18T09:00:02.014Z,1013.29
2018-03-18T09:01:11.971Z,1013.33
2018-03-18T09:02:21.164Z,1013.18
2018-03-18T09:03:30.868Z,1013.19
2018-03-18T09:04:40.317Z,1013.29
2018-03-18T09:05:50.291Z,1013.16
2018-03-18T09:06:59.994Z,1013.3
2018-03-18T09:08:09.438Z,1013.29
2018-03-18T09:09:19.156Z,1013.24
2018-03-18T09:10:28.866Z,1013.23
2018-03-18T09:11:38.855Z,1013.28
2018-03-18T09:12:48.299Z,1013.31
2018-03-18T09:13:57.740Z,1013.27
2018-03-18T09:15:07.702Z,1013.23
2018-03-18T09:16:17.676Z,1013.17
2018-03-18T09:17:27.404Z,1013.21
2018-03-18T09:18:36.887Z,1013.18
2018-03-18T09:19:46.596Z,1013.13
2018-03-18T09:20:56.300Z,1013.22
2018-03-18T09:22:05.744Z,1013.29
2018-03-18T09:23:14.954Z,1013.11
2018-03-18T09:24:24.922Z,1013.07
2018-03-18T09:25:34.623Z,1013.17
2018-03-18T09:26:44.359Z,1013.07
2018-03-18T09:27:54.077Z,1013.1
2018-03-18T09:29:04.041Z,1013.11
2018-03-18T09:30:13.550Z,1013.05
2018-03-18T09:31:23.661Z,1012.97
2018-03-18T09:32:33.638Z,1013.05
2018-03-18T09:33:43.599Z,1013.04
2018-03-18T09:34:53.585Z,1013.02
2018-03-18T09:36:03.556Z,1013.14
2018-03-18T09:37:12.748Z,1013.07
2018-03-18T09:38:22.462Z,1013.21
2018-03-18T09:39:32.213Z,1012.94
2018-03-18T09:40:41.927Z,1012.98
2018-03-18T09:41:51.919Z,1012.97
2018-03-18T09:43:01.373Z,1013
2018-03-18T09:44:11.351Z,1013.06
2018-03-18T09:45:21.322Z,1013
2018-03-18T09:46:31.287Z,1013.03
2018-03-18T09:47:40.986Z,1012.93
2018-03-18T09:48:50.085Z,1013
2018-03-18T09:50:00.138Z,1012.7
2018-03-18T09:51:09.586Z,1012.89
2018-03-18T09:52:19.579Z,1012.64
2018-03-18T09:53:29.575Z,1012.86
2018-03-18T09:54:39.553Z,1012.84
2018-03-18T09:55:49.525Z,1012.87
2018-03-18T09:56:59.493Z,1012.9
2018-03-18T09:58:08.951Z,1012.84
2018-03-18T09:59:18.919Z,1012.91
2018-03-18T10:00:28.781Z,1012.92
2018-03-18T10:01:38.763Z,1012.89
2018-03-18T10:02:48.481Z,1012.98
2018-03-18T10:03:58.192Z,1012.73
2018-03-18T10:05:07.905Z,1012.89
2018-03-18T10:06:17.620Z,1012.86
2018-03-18T10:07:27.357Z,1012.98
2018-03-18T10:08:37.068Z,1012.75
2018-03-18T10:09:46.776Z,1012.78
2018-03-18T10:10:56.739Z,1012.85
2018-03-18T10:12:06.457Z,1012.92
2018-03-18T10:13:15.917Z,1012.9
2018-03-18T10:14:25.622Z,1012.88
2018-03-18T10:15:35.628Z,1012.91
2018-03-18T10:16:45.347Z,1012.93
2018-03-18T10:17:55.316Z,1012.94
2018-03-18T10:19:05.340Z,1012.69
2018-03-18T10:20:15.436Z,1012.88
2018-03-18T10:21:25.647Z,1012.84
2018-03-18T10:22:35.388Z,1012.97
2018-03-18T10:23:45.095Z,1012.93
2018-03-18T10:24:54.816Z,1012.87
2018-03-18T10:26:04.809Z,1012.78
2018-03-18T10:27:14.799Z,1012.92
2018-03-18T10:28:24.784Z,1012.73
2018-03-18T10:29:34.767Z,1012.79
2018-03-18T10:30:44.470Z,1012.88
2018-03-18T10:31:54.178Z,1012.91
2018-03-18T10:33:03.906Z,1012.8
2018-03-18T10:34:13.631Z,1012.9
2018-03-18T10:35:23.622Z,1012.93
2018-03-18T10:36:33.356Z,1012.8
2018-03-18T10:37:43.320Z,1012.59
2018-03-18T10:38:53.028Z,1012.93
2018-03-18T10:40:02.733Z,1012.78
2018-03-18T10:41:12.454Z,1012.78
2018-03-18T10:42:22.419Z,1012.8
2018-03-18T10:43:32.419Z,1012.84
2018-03-18T10:44:42.388Z,1012.87
2018-03-18T10:45:52.358Z,1012.8
2018-03-18T10:47:01.556Z,1012.71
2018-03-18T10:48:11.542Z,1012.81
2018-03-18T10:49:21.017Z,1012.8
2018-03-18T10:50:31.001Z,1012.71
2018-03-18T10:51:40.712Z,1012.71
2018-03-18T10:52:50.159Z,1012.6
2018-03-18T10:53:59.862Z,1012.67
2018-03-18T10:55:09.833Z,1012.71
2018-03-18T10:56:19.548Z,1012.7
2018-03-18T10:57:29.263Z,1012.75
2018-03-18T10:58:38.990Z,1012.61
2018-03-18T10:59:48.723Z,1012.8
2018-03-18T11:00:58.453Z,1012.62
2018-03-18T11:02:08.179Z,1012.68
2018-03-18T11:03:17.887Z,1012.79
2018-03-18T11:04:27.920Z,1012.79
2018-03-18T11:05:38.149Z,1012.72
2018-03-18T11:06:48.146Z,1012.8
2018-03-18T11:07:58.142Z,1012.79
2018-03-18T11:09:07.858Z,1012.67
2018-03-18T11:10:17.850Z,1012.72
2018-03-18T11:11:27.814Z,1012.69
2018-03-18T11:12:37.802Z,1012.72
2018-03-18T11:13:47.778Z,1012.62
2018-03-18T11:14:57.513Z,1012.54
2018-03-18T11:16:07.648Z,1012.63
2018-03-18T11:17:17.456Z,1012.72
2018-03-18T11:18:27.172Z,1012.48
2018-03-18T11:19:37.149Z,1012.49
2018-03-18T11:20:47.123Z,1012.57
2018-03-18T11:21:57.096Z,1012.67
2018-03-18T11:23:07.090Z,1012.64
2018-03-18T11:24:16.910Z,1012.56
2018-03-18T11:25:26.894Z,1012.54
2018-03-18T11:26:36.346Z,1012.58
2018-03-18T11:27:46.324Z,1012.59
2018-03-18T11:28:56.052Z,1012.57
2018-03-18T11:30:05.834Z,1012.47
2018-03-18T11:31:15.946Z,1012.51
2018-03-18T11:32:25.935Z,1012.45
2018-03-18T11:33:35.898Z,1012.56
2018-03-18T11:34:45.868Z,1012.43
2018-03-18T11:35:55.841Z,1012.49
2018-03-18T11:37:05.824Z,1012.53
2018-03-18T11:38:15.545Z,1012.44
2018-03-18T11:39:25.005Z,1012.45
2018-03-18T11:40:34.734Z,1012.35
2018-03-18T11:41:44.246Z,1012.45
2018-03-18T11:42:53.966Z,1012.32
2018-03-18T11:44:03.426Z,1012.35
2018-03-18T11:45:12.906Z,1012.31
2018-03-18T11:46:22.613Z,1012.39
2018-03-18T11:47:32.071Z,1012.44
2018-03-18T11:48:42.064Z,1012.43
2018-03-18T11:49:51.782Z,1012.42
2018-03-18T11:51:01.781Z,1012.47
2018-03-18T11:52:11.236Z,1012.42
2018-03-18T11:53:21.203Z,1012.43
2018-03-18T11:54:31.171Z,1012.21
2018-03-18T11:55:40.886Z,1012.25
2018-03-18T11:56:50.668Z,1012.38
2018-03-18T11:58:00.640Z,1012.29
2018-03-18T11:59:10.629Z,1012.26
2018-03-18T12:00:19.832Z,1012.28
2018-03-18T12:01:29.320Z,1012.32
2018-03-18T12:02:39.288Z,1012.3
2018-03-18T12:03:49.263Z,1012.27
2018-03-18T12:04:59.235Z,1012.24
2018-03-18T12:06:08.963Z,1012.25
2018-03-18T12:07:18.681Z,1012.35
2018-03-18T12:08:28.398Z,1012.39
2018-03-18T12:09:38.372Z,1012.35
2018-03-18T12:10:48.417Z,1012.29
2018-03-18T12:11:58.107Z,1012.27
2018-03-18T12:13:08.118Z,1012.29
2018-03-18T12:14:17.569Z,1012.28
2018-03-18T12:15:27.336Z,1012.26
2018-03-18T12:16:37.299Z,1012.27
2018-03-18T12:17:47.286Z,1012.3
2018-03-18T12:18:56.998Z,1012.33
2018-03-18T12:20:06.986Z,1012.28
2018-03-18T12:21:16.721Z,1012.26
2018-03-18T12:22:26.194Z,1012.28
2018-03-18T12:23:35.913Z,1012.18
2018-03-18T12:24:45.631Z,1012.14
2018-03-18T12:25:55.079Z,1012.22
2018-03-18T12:27:04.557Z,1012.31
2018-03-18T12:28:14.282Z,1012.19
2018-03-18T12:29:24.254Z,1012.18
2018-03-18T12:30:34.260Z,1012.16
2018-03-18T12:31:43.962Z,1012.27
2018-03-18T12:32:53.714Z,1012.21
2018-03-18T12:34:03.694Z,1012.13
2018-03-18T12:35:13.667Z,1012.21
2018-03-18T12:36:23.393Z,1012.24
2018-03-18T12:37:32.847Z,1012.16
2018-03-18T12:38:42.329Z,1012.03
2018-03-18T12:39:52.050Z,1012.13
2018-03-18T12:41:01.769Z,1012.08
2018-03-18T12:42:11.219Z,1012.19
2018-03-18T12:43:21.216Z,1012.12
2018-03-18T12:44:30.930Z,1012.04
2018-03-18T12:45:40.649Z,1012.16
2018-03-18T12:46:50.108Z,1012.06
2018-03-18T12:47:59.828Z,1012.06
2018-03-18T12:49:09.820Z,1012.08
2018-03-18T12:50:19.300Z,1011.96
2018-03-18T12:51:29.015Z,1012.06
2018-03-18T12:52:38.957Z,1012.08
2018-03-18T12:53:48.674Z,1012.02
2018-03-18T12:54:58.140Z,1012.1
2018-03-18T12:56:08.174Z,1012.1
2018-03-18T12:57:18.152Z,1012.13
2018-03-18T12:58:28.142Z,1012.01
2018-03-18T12:59:37.874Z,1012.07
2018-03-18T13:00:47.593Z,1012.13
2018-03-18T13:01:57.310Z,1012.04
2018-03-18T13:03:07.017Z,1011.96
2018-03-18T13:04:16.999Z,1011.97
2018-03-18T13:05:26.456Z,1011.94
2018-03-18T13:06:35.999Z,1011.93
2018-03-18T13:07:46.076Z,1011.88
2018-03-18T13:08:55.777Z,1011.93
2018-03-18T13:10:05.502Z,1011.97
2018-03-18T13:11:14.959Z,1011.96
2018-03-18T13:12:24.641Z,1011.98
2018-03-18T13:13:34.354Z,1011.95
2018-03-18T13:14:43.807Z,1011.95
2018-03-18T13:15:53.540Z,1011.94
2018-03-18T13:17:02.983Z,1011.78
2018-03-18T13:18:12.497Z,1011.93
2018-03-18T13:19:22.494Z,1011.81
2018-03-18T13:20:31.960Z,1011.85
2018-03-18T13:21:40.895Z,1011.83
2018-03-18T13:22:50.371Z,1011.99
2018-03-18T13:24:00.086Z,1011.83
2018-03-18T13:25:09.820Z,1011.9
2018-03-18T13:26:19.528Z,1011.95
2018-03-18T13:27:29.512Z,1011.64
2018-03-18T13:28:39.237Z,1011.92
2018-03-18T13:29:49.216Z,1011.83
2018-03-18T13:30:58.663Z,1011.95
2018-03-18T13:32:08.107Z,1011.79
2018-03-18T13:33:17.832Z,1011.92
2018-03-18T13:34:27.802Z,1011.83
2018-03-18T13:35:37.801Z,1011.79
2018-03-18T13:36:47.569Z,1011.89
2018-03-18T13:37:58.028Z,1011.77
2018-03-18T13:39:08.024Z,1011.88
2018-03-18T13:40:17.756Z,1011.83
2018-03-18T13:41:27.731Z,1011.77
2018-03-18T13:42:36.934Z,1011.77
2018-03-18T13:43:46.922Z,1011.79
2018-03-18T13:44:56.895Z,1011.82
2018-03-18T13:46:06.875Z,1011.79
2018-03-18T13:47:16.587Z,1011.75
2018-03-18T13:48:26.574Z,1011.92
2018-03-18T13:49:36.038Z,1011.71
2018-03-18T13:50:45.775Z,1011.78
2018-03-18T13:51:55.496Z,1011.85
2018-03-18T13:53:05.473Z,1011.8
2018-03-18T13:54:15.197Z,1011.75
2018-03-18T13:55:24.662Z,1011.8
2018-03-18T13:56:34.632Z,1011.82
2018-03-18T13:57:44.124Z,1011.77
2018-03-18T13:58:54.092Z,1011.75
2018-03-18T14:00:04.114Z,1011.73
2018-03-18T14:01:13.962Z,1011.72
2018-03-18T14:02:23.682Z,1011.7
2018-03-18T14:03:33.716Z,1011.62
2018-03-18T14:04:43.698Z,1011.64
2018-03-18T14:05:53.451Z,1011.61
2018-03-18T14:07:03.262Z,1011.72